createdAt,value
2019-05-10T00:01:09.029Z,12.5
2019-05-10T00:02:18.363Z,12.4
2019-05-10T00:03:27.810Z,12.4
2019-05-10T00:04:37.379Z,12.4
2019-05-10T00:05:46.751Z,12.4
2019-05-10T00:06:56.291Z,12.4
2019-05-10T00:08:05.683Z,12.5
2019-05-10T00:09:15.178Z,12.6
2019-05-10T00:10:24.898Z,12.6
2019-05-10T00:11:33.989Z,12.6
2019-05-10T00:12:43.556Z,12.7
2019-05-10T00:13:52.973Z,12.6
2019-05-10T00:15:02.712Z,12.7
2019-05-10T00:16:11.942Z,12.7
2019-05-10T00:17:21.279Z,12.7
2019-05-10T00:18:30.734Z,12.7
2019-05-10T00:19:40.323Z,12.7
2019-05-10T00:20:49.645Z,12.8
2019-05-10T00:21:59.127Z,12.7
2019-05-10T00:23:08.665Z,12.8
2019-05-10T00:24:18.013Z,12.8
2019-05-10T00:25:27.521Z,12.9
2019-05-10T00:26:36.933Z,12.9
2019-05-10T00:27:46.963Z,12.9
2019-05-10T00:28:55.937Z,13
2019-05-10T00:30:05.316Z,13
2019-05-10T00:31:14.775Z,13
2019-05-10T00:32:24.308Z,13
2019-05-10T00:33:33.853Z,13.1
2019-05-10T00:34:43.452Z,13
2019-05-10T00:35:52.764Z,13.1
2019-05-10T00:37:02.114Z,13.1
2019-05-10T00:39:21.045Z,13.2
2019-05-10T00:41:39.974Z,13.2
2019-05-10T00:42:49.487Z,13.2
2019-05-10T00:43:59.108Z,13.2
2019-05-10T00:45:08.486Z,13.2
2019-05-10T00:46:17.879Z,13.3
2019-05-10T00:47:27.433Z,13.4
2019-05-10T00:48:36.812Z,13.4
2019-05-10T00:49:46.323Z,13.5
2019-05-10T00:50:55.713Z,13.4
2019-05-10T00:52:05.175Z,13.4
2019-05-10T00:54:24.132Z,13.3
2019-05-10T00:55:33.607Z,13.3
2019-05-10T00:56:43.142Z,13.3
2019-05-10T00:57:52.866Z,13.2
2019-05-10T00:59:02.120Z,13.3
2019-05-10T01:00:11.587Z,13.3
2019-05-10T01:01:21.108Z,13.4
2019-05-10T01:02:30.446Z,13.4
2019-05-10T01:03:40.052Z,13.3
2019-05-10T01:04:49.405Z,13.3
2019-05-10T01:05:58.893Z,13.2
2019-05-10T01:07:09.600Z,13.2
2019-05-10T01:08:18.986Z,13.2
2019-05-10T01:09:28.476Z,13.2
2019-05-10T01:11:47.441Z,13.1
2019-05-10T01:12:57.005Z,13.1
2019-05-10T01:14:06.597Z,13.1
2019-05-10T01:15:16.602Z,13.1
2019-05-10T01:16:25.290Z,13.1
2019-05-10T01:17:34.870Z,13.1
2019-05-10T01:18:44.287Z,13.1
2019-05-10T01:19:53.783Z,13.1
2019-05-10T01:21:03.338Z,13.1
2019-05-10T01:22:12.719Z,13.1
2019-05-10T01:23:22.159Z,13.1
2019-05-10T01:24:31.629Z,13.1
2019-05-10T01:25:41.144Z,13.1
2019-05-10T01:26:50.666Z,13.1
2019-05-10T01:28:00.034Z,13.1
2019-05-10T01:29:09.582Z,13.1
2019-05-10T01:30:18.991Z,13.1
2019-05-10T01:31:28.467Z,13.1
2019-05-10T01:32:38.209Z,13.1
2019-05-10T01:33:47.400Z,13.1
2019-05-10T01:34:56.861Z,13.1
2019-05-10T01:36:06.344Z,13.1
2019-05-10T01:37:15.926Z,13.1
2019-05-10T01:38:25.288Z,13.1
2019-05-10T01:39:34.757Z,13.1
2019-05-10T01:40:45.801Z,13.1
2019-05-10T01:41:53.732Z,13.1
2019-05-10T01:43:03.235Z,13.1
2019-05-10T01:44:12.707Z,13.1
2019-05-10T01:45:22.490Z,13.1
2019-05-10T01:46:31.735Z,13.1
2019-05-10T01:47:41.150Z,13.1
2019-05-10T01:48:50.618Z,13.1
2019-05-10T01:50:00.027Z,13.1
2019-05-10T01:51:09.485Z,13.1
2019-05-10T01:52:18.975Z,13.1
2019-05-10T01:53:28.550Z,13.2
2019-05-10T01:54:38.056Z,13.2
2019-05-10T01:55:51.901Z,13.2
2019-05-10T01:56:56.968Z,13.2
2019-05-10T01:58:06.357Z,13.1
2019-05-10T01:59:16.230Z,13
2019-05-10T02:00:25.688Z,12.8
2019-05-10T02:01:34.783Z,12.7
2019-05-10T02:02:44.245Z,12.5
2019-05-10T02:03:53.784Z,12.4
2019-05-10T02:05:03.186Z,12.4
2019-05-10T02:06:13.982Z,12.4
2019-05-10T02:07:23.161Z,12.4
2019-05-10T02:08:32.694Z,12.4
2019-05-10T02:09:43.074Z,12.4
2019-05-10T02:10:52.918Z,12.5
2019-05-10T02:12:01.011Z,12.4
2019-05-10T02:13:10.502Z,12.4
2019-05-10T02:14:19.967Z,12.4
2019-05-10T02:15:29.601Z,12.4
2019-05-10T02:16:39.178Z,12.3
2019-05-10T02:17:48.439Z,12.3
2019-05-10T02:18:57.779Z,12.3
2019-05-10T02:20:07.229Z,12.3
2019-05-10T02:21:16.846Z,12.3
2019-05-10T02:22:26.210Z,12.3
2019-05-10T02:23:35.598Z,12.3
2019-05-10T02:24:45.063Z,12.2
2019-05-10T02:26:08.218Z,12.2
2019-05-10T02:27:04.012Z,12.2
2019-05-10T02:28:13.419Z,12.3
2019-05-10T02:29:23.007Z,12.2
2019-05-10T02:30:32.822Z,12.2
2019-05-10T02:31:41.780Z,12.3
2019-05-10T02:32:51.271Z,12.3
2019-05-10T02:34:00.721Z,12.3
2019-05-10T02:35:10.161Z,12.3
2019-05-10T02:36:19.630Z,12.2
2019-05-10T02:37:29.111Z,12.2
2019-05-10T02:38:38.521Z,12.2
2019-05-10T02:39:47.948Z,12.2
2019-05-10T02:40:57.409Z,12.2
2019-05-10T02:42:06.860Z,12.2
2019-05-10T02:43:16.403Z,12.2
2019-05-10T02:44:25.845Z,12.3
2019-05-10T02:45:35.208Z,12.3
2019-05-10T02:46:44.730Z,12.3
2019-05-10T02:47:54.207Z,12.2
2019-05-10T02:49:03.557Z,12.2
2019-05-10T02:50:13.070Z,12.2
2019-05-10T02:51:22.866Z,12.2
2019-05-10T02:52:31.999Z,12.2
2019-05-10T02:53:41.348Z,12.2
2019-05-10T02:54:51.279Z,12.2
2019-05-10T02:56:00.243Z,12.2
2019-05-10T02:57:09.705Z,12.2
2019-05-10T02:58:19.219Z,12.2
2019-05-10T02:59:28.697Z,12.2
2019-05-10T03:00:38.117Z,12.2
2019-05-10T03:01:47.614Z,12.2
2019-05-10T03:02:56.931Z,12.2
2019-05-10T03:04:06.654Z,12.1
2019-05-10T03:05:15.889Z,12.1
2019-05-10T03:06:25.355Z,12.1
2019-05-10T03:07:34.827Z,12.1
2019-05-10T03:08:44.339Z,12.1
2019-05-10T03:09:53.853Z,12.1
2019-05-10T03:11:04.137Z,12
2019-05-10T03:12:13.586Z,12
2019-05-10T03:13:26.883Z,12
2019-05-10T03:14:32.568Z,12
2019-05-10T03:15:42.411Z,11.9
2019-05-10T03:16:51.519Z,11.9
2019-05-10T03:18:00.802Z,11.9
2019-05-10T03:19:10.345Z,11.9
2019-05-10T03:20:19.821Z,11.9
2019-05-10T03:21:29.267Z,11.9
2019-05-10T03:22:38.605Z,11.8
2019-05-10T03:23:48.397Z,11.8
2019-05-10T03:24:57.611Z,11.8
2019-05-10T03:26:07.018Z,11.9
2019-05-10T03:27:16.373Z,11.9
2019-05-10T03:28:26.087Z,11.9
2019-05-10T03:29:35.244Z,11.9
2019-05-10T03:30:44.758Z,11.9
2019-05-10T03:31:54.240Z,11.9
2019-05-10T03:33:04.003Z,11.9
2019-05-10T03:34:13.031Z,11.9
2019-05-10T03:35:22.464Z,11.9
2019-05-10T03:36:31.908Z,11.9
2019-05-10T03:37:41.468Z,11.9
2019-05-10T03:38:50.824Z,11.9
2019-05-10T03:40:00.884Z,11.9
2019-05-10T03:41:09.688Z,11.9
2019-05-10T03:42:19.238Z,11.9
2019-05-10T03:43:28.925Z,11.9
2019-05-10T03:44:38.008Z,11.9
2019-05-10T03:45:47.493Z,11.9
2019-05-10T03:46:57.006Z,11.9
2019-05-10T03:48:06.335Z,11.9
2019-05-10T03:49:15.831Z,11.9
2019-05-10T03:50:25.421Z,11.9
2019-05-10T03:51:34.658Z,11.9
2019-05-10T03:52:44.131Z,11.9
2019-05-10T03:53:53.556Z,11.9
2019-05-10T03:55:02.985Z,11.9
2019-05-10T03:57:21.874Z,11.9
2019-05-10T03:58:31.355Z,11.9
2019-05-10T03:59:40.769Z,11.9
2019-05-10T04:00:50.282Z,11.9
2019-05-10T04:01:59.781Z,11.9
2019-05-10T04:03:09.116Z,11.9
2019-05-10T04:04:18.546Z,11.9
2019-05-10T04:05:28.072Z,11.9
2019-05-10T04:06:37.579Z,11.9
2019-05-10T04:07:46.869Z,11.9
2019-05-10T04:08:56.357Z,11.9
2019-05-10T04:10:05.829Z,11.9
2019-05-10T04:11:15.198Z,11.9
2019-05-10T04:12:24.993Z,11.9
2019-05-10T04:13:34.174Z,11.9
2019-05-10T04:14:43.525Z,11.9
2019-05-10T04:15:53.397Z,11.9
2019-05-10T04:17:02.427Z,12
2019-05-10T04:18:11.875Z,11.9
2019-05-10T04:19:21.326Z,11.9
2019-05-10T04:20:30.747Z,11.9
2019-05-10T04:21:40.203Z,11.9
2019-05-10T04:22:49.648Z,11.9
2019-05-10T04:23:59.131Z,11.9
2019-05-10T04:25:08.529Z,11.9
2019-05-10T04:26:18.079Z,11.9
2019-05-10T04:27:31.916Z,11.9
2019-05-10T04:28:36.895Z,11.9
2019-05-10T04:29:46.391Z,11.9
2019-05-10T04:30:55.786Z,11.9
2019-05-10T04:33:14.695Z,11.9
2019-05-10T04:34:24.124Z,11.9
2019-05-10T04:35:33.556Z,11.9
2019-05-10T04:36:43.006Z,11.9
2019-05-10T04:37:52.583Z,11.9
2019-05-10T04:39:01.902Z,12
2019-05-10T04:40:15.015Z,12
2019-05-10T04:41:20.782Z,12.1
2019-05-10T04:42:30.274Z,12
2019-05-10T04:43:39.724Z,12.1
2019-05-10T04:44:53.062Z,12
2019-05-10T04:45:58.573Z,12
2019-05-10T04:47:08.113Z,12.1
2019-05-10T04:48:17.475Z,12.1
2019-05-10T04:49:26.920Z,12.1
2019-05-10T04:50:36.512Z,12.1
2019-05-10T04:51:45.933Z,12.2
2019-05-10T04:54:04.760Z,12.2
2019-05-10T04:55:14.180Z,12.2
2019-05-10T04:56:23.653Z,12.3
2019-05-10T04:57:49.071Z,12.3
2019-05-10T04:58:42.818Z,12.3
2019-05-10T04:59:52.099Z,12.4
2019-05-10T05:01:01.684Z,12.4
2019-05-10T05:02:11.053Z,12.4
2019-05-10T05:03:20.378Z,12.4
2019-05-10T05:04:29.911Z,12.5
2019-05-10T05:05:39.297Z,12.5
2019-05-10T05:06:48.751Z,12.5
2019-05-10T05:07:58.209Z,12.5
2019-05-10T05:09:07.797Z,12.5
2019-05-10T05:10:19.758Z,12.5
2019-05-10T05:11:26.671Z,12.5
2019-05-10T05:12:36.114Z,12.6
2019-05-10T05:13:45.530Z,12.6
2019-05-10T05:14:54.989Z,12.6
2019-05-10T05:16:04.657Z,12.6
2019-05-10T05:17:13.977Z,12.6
2019-05-10T05:18:23.425Z,12.7
2019-05-10T05:19:32.915Z,12.7
2019-05-10T05:20:42.353Z,12.7
2019-05-10T05:21:51.869Z,12.7
2019-05-10T05:23:01.607Z,12.7
2019-05-10T05:24:10.960Z,12.7
2019-05-10T05:25:22.089Z,12.8
2019-05-10T05:26:29.870Z,12.9
2019-05-10T05:27:39.276Z,12.9
2019-05-10T05:28:48.660Z,12.9
2019-05-10T05:29:58.134Z,13
2019-05-10T05:31:07.850Z,12.9
2019-05-10T05:32:17.102Z,13
2019-05-10T05:33:26.835Z,13.1
2019-05-10T05:34:36.091Z,13.2
2019-05-10T05:35:45.688Z,13.2
2019-05-10T05:36:55.109Z,13.3
2019-05-10T05:38:04.574Z,13.4
2019-05-10T05:39:14.352Z,13.6
2019-05-10T05:40:25.517Z,13.7
2019-05-10T05:42:42.810Z,13.9
2019-05-10T05:43:52.054Z,13.9
2019-05-10T05:45:01.671Z,14
2019-05-10T05:46:14.231Z,13.9
2019-05-10T05:47:20.615Z,14.4
2019-05-10T05:48:39.764Z,14.9
2019-05-10T05:49:40.147Z,14.7
2019-05-10T05:50:49.184Z,15.1
2019-05-10T05:51:58.875Z,15.2
2019-05-10T05:53:08.219Z,16.2
2019-05-10T05:54:20.522Z,17
2019-05-10T05:55:30.440Z,16.7
2019-05-10T05:56:36.956Z,17
2019-05-10T05:57:46.510Z,17.1
2019-05-10T05:58:55.937Z,17.5
2019-05-10T06:00:06.636Z,18
2019-05-10T06:01:24.240Z,18.2
2019-05-10T06:02:24.658Z,17.8
2019-05-10T06:03:34.219Z,17.6
2019-05-10T06:04:46.112Z,17.2
2019-05-10T06:07:02.996Z,16.4
2019-05-10T06:08:22.670Z,16.2
2019-05-10T06:09:22.266Z,15.8
2019-05-10T06:10:32.310Z,15.3
2019-05-10T06:11:41.474Z,15.5
2019-05-10T06:12:52.871Z,15.1
2019-05-10T06:14:03.529Z,15.4
2019-05-10T06:15:10.300Z,15.4
2019-05-10T06:16:22.169Z,15.2
2019-05-10T06:17:31.568Z,15.4
2019-05-10T06:18:41.503Z,15.4
2019-05-10T06:19:49.522Z,15.2
2019-05-10T06:20:59.160Z,15
2019-05-10T06:22:08.673Z,15.1
2019-05-10T06:23:18.368Z,15
2019-05-10T06:24:27.959Z,15.1
2019-05-10T06:25:39.842Z,15.2
2019-05-10T06:26:46.992Z,15.1
2019-05-10T06:27:56.867Z,15
2019-05-10T06:29:16.046Z,15
2019-05-10T06:30:15.868Z,15
2019-05-10T06:31:25.319Z,15.2
2019-05-10T06:32:35.045Z,15.3
2019-05-10T06:33:46.402Z,15
2019-05-10T06:34:54.215Z,15.1
2019-05-10T06:36:03.787Z,14.8
2019-05-10T06:37:13.181Z,14.8
2019-05-10T06:38:23.104Z,15.1
2019-05-10T06:39:32.828Z,15.3
2019-05-10T06:41:55.878Z,15.4
2019-05-10T06:43:01.134Z,15.6
2019-05-10T06:44:10.823Z,16.1
2019-05-10T06:45:20.270Z,15.8
2019-05-10T06:46:31.152Z,16.1
2019-05-10T06:47:41.822Z,15.9
2019-05-10T06:48:49.070Z,16.4
2019-05-10T06:49:58.749Z,16.6
2019-05-10T06:51:11.288Z,16.7
2019-05-10T06:52:21.731Z,17.2
2019-05-10T06:53:27.548Z,16.6
2019-05-10T06:54:37.140Z,17.2
2019-05-10T06:55:46.868Z,18.4
2019-05-10T06:56:56.507Z,18.3
2019-05-10T06:58:06.221Z,18.1
2019-05-10T06:59:19.276Z,17.7
2019-05-10T07:00:25.430Z,17.7
2019-05-10T07:01:38.105Z,17.4
2019-05-10T07:02:44.726Z,17.8
2019-05-10T07:03:54.507Z,17.6
2019-05-10T07:05:04.257Z,17.4
2019-05-10T07:06:13.799Z,17.3
2019-05-10T07:07:41.682Z,16.5
2019-05-10T07:08:43.589Z,16.7
2019-05-10T07:10:03.275Z,16.5
2019-05-10T07:10:53.820Z,16.3
2019-05-10T07:12:03.241Z,16.5
2019-05-10T07:13:12.874Z,15.7
2019-05-10T07:14:25.302Z,15.7
2019-05-10T07:15:35.614Z,16.1
2019-05-10T07:16:41.713Z,16.2
2019-05-10T07:17:51.898Z,16.5
2019-05-10T07:19:02.224Z,16.2
2019-05-10T07:20:10.634Z,16.2
2019-05-10T07:21:20.271Z,15.9
2019-05-10T07:22:29.964Z,16.1
2019-05-10T07:23:44.609Z,15.5
2019-05-10T07:24:49.186Z,14.9
2019-05-10T07:25:58.809Z,15.3
2019-05-10T07:27:08.441Z,15.7
2019-05-10T07:28:18.062Z,15.9
2019-05-10T07:29:29.869Z,16.2
2019-05-10T07:30:40.993Z,15.9
2019-05-10T07:31:46.947Z,15.2
2019-05-10T07:32:59.586Z,15.4
2019-05-10T07:34:09.604Z,15.8
2019-05-10T07:35:15.812Z,15.9
2019-05-10T07:36:26.965Z,15.8
2019-05-10T07:37:35.236Z,15.8
2019-05-10T07:38:44.661Z,16
2019-05-10T07:39:55.294Z,15.8
2019-05-10T07:41:04.537Z,16
2019-05-10T07:42:13.532Z,16.3
2019-05-10T07:43:25.999Z,16.2
2019-05-10T07:44:32.866Z,16.6
2019-05-10T07:45:42.751Z,16.8
2019-05-10T07:46:55.196Z,17
2019-05-10T07:48:02.256Z,16.7
2019-05-10T07:49:11.469Z,16.8
2019-05-10T07:50:21.183Z,16.8
2019-05-10T07:52:43.261Z,16.3
2019-05-10T07:53:50.146Z,15.4
2019-05-10T07:54:59.837Z,15.9
2019-05-10T07:56:09.417Z,15.5
2019-05-10T07:57:24.588Z,15.9
2019-05-10T07:58:28.780Z,16.9
2019-05-10T07:59:49.875Z,16.8
2019-05-10T08:00:48.249Z,17.6
2019-05-10T08:01:58.012Z,18.4
2019-05-10T08:03:15.448Z,18.6
2019-05-10T08:04:19.512Z,18.5
2019-05-10T08:05:29.174Z,18.7
2019-05-10T08:06:40.944Z,19.2
2019-05-10T08:07:48.857Z,19.6
2019-05-10T08:09:01.672Z,20.2
2019-05-10T08:10:08.690Z,21.4
2019-05-10T08:11:16.185Z,21.4
2019-05-10T08:12:28.651Z,20.5
2019-05-10T08:13:35.835Z,20.4
2019-05-10T08:14:49.939Z,20.2
2019-05-10T08:15:55.628Z,19.4
2019-05-10T08:17:06.191Z,19.1
2019-05-10T08:18:19.986Z,18.5
2019-05-10T08:19:25.359Z,17.8
2019-05-10T08:20:46.071Z,19.1
2019-05-10T08:21:48.661Z,20.2
2019-05-10T08:22:55.002Z,20.7
2019-05-10T08:24:10.939Z,20.7
2019-05-10T08:25:15.286Z,20.7
2019-05-10T08:26:24.861Z,20.5
2019-05-10T08:27:34.444Z,20.6
2019-05-10T08:28:44.718Z,19.6
2019-05-10T08:30:16.642Z,20
2019-05-10T08:31:04.747Z,19.2
2019-05-10T08:32:14.297Z,19.4
2019-05-10T08:33:24.095Z,19.7
2019-05-10T08:34:35.191Z,20
2019-05-10T08:35:46.265Z,20.5
2019-05-10T08:36:53.734Z,21.2
2019-05-10T08:38:04.566Z,21.4
2019-05-10T08:39:15.408Z,21.5
2019-05-10T08:40:36.785Z,20.9
2019-05-10T08:41:37.291Z,20.9
2019-05-10T08:44:04.434Z,20.5
2019-05-10T08:45:12.770Z,20.9
2019-05-10T08:46:31.217Z,21.4
2019-05-10T08:47:36.754Z,21.1
2019-05-10T08:48:51.214Z,20.7
2019-05-10T08:50:11.657Z,19.5
2019-05-10T08:51:12.330Z,20.1
2019-05-10T08:52:24.857Z,19.4
2019-05-10T08:53:34.244Z,20.3
2019-05-10T08:54:46.175Z,20.3
2019-05-10T08:55:58.827Z,20.5
2019-05-10T08:57:16.412Z,21.1
2019-05-10T08:58:31.203Z,20.2
2019-05-10T08:59:34.048Z,21
2019-05-10T09:00:53.692Z,20.5
2019-05-10T09:01:57.760Z,20.4
2019-05-10T09:03:13.795Z,19.5
2019-05-10T09:05:34.016Z,19.1
2019-05-10T09:06:47.376Z,18.8
2019-05-10T09:07:57.293Z,19.2
2019-05-10T09:09:09.142Z,18.9
2019-05-10T09:10:24.724Z,19.2
2019-05-10T09:11:32.962Z,19.5
2019-05-10T09:12:50.816Z,18.7
2019-05-10T09:13:57.305Z,18.6
2019-05-10T09:15:10.012Z,18.2
2019-05-10T09:16:16.066Z,18.1
2019-05-10T09:17:28.476Z,18.4
2019-05-10T09:18:43.907Z,19.2
2019-05-10T09:19:51.853Z,18.9
2019-05-10T09:21:08.425Z,18.7
2019-05-10T09:22:13.456Z,19.4
2019-05-10T09:23:25.222Z,19.2
2019-05-10T09:24:40.891Z,20.2
2019-05-10T09:25:48.905Z,20.3
2019-05-10T09:27:01.809Z,19.2
2019-05-10T09:28:15.098Z,17.7
2019-05-10T09:29:21.884Z,17.8
2019-05-10T09:30:32.389Z,17.8
2019-05-10T09:31:45.722Z,17.9
2019-05-10T09:32:51.794Z,17.6
2019-05-10T09:34:02.378Z,17.6
2019-05-10T09:35:12.520Z,17.4
2019-05-10T09:36:22.971Z,17
2019-05-10T09:37:31.964Z,17.3
2019-05-10T09:38:43.290Z,17.2
2019-05-10T09:39:52.854Z,17.9
2019-05-10T09:41:04.148Z,18.1
2019-05-10T09:42:12.854Z,17.8
2019-05-10T09:43:21.196Z,17.5
2019-05-10T09:44:28.727Z,17.7
2019-05-10T09:45:38.333Z,17.8
2019-05-10T09:46:48.038Z,17.5
2019-05-10T09:47:57.710Z,17.2
2019-05-10T09:49:15.370Z,17.5
2019-05-10T09:50:17.153Z,17.4
2019-05-10T09:51:30.020Z,17.7
2019-05-10T09:52:36.647Z,17.4
2019-05-10T09:53:48.481Z,17.2
2019-05-10T09:56:07.705Z,17
2019-05-10T09:57:17.371Z,16.9
2019-05-10T09:58:24.946Z,16.7
2019-05-10T09:59:36.682Z,16.7
2019-05-10T10:00:45.125Z,16.7
2019-05-10T10:01:53.928Z,16.6
2019-05-10T10:03:03.594Z,16.7
2019-05-10T10:04:13.251Z,16.7
2019-05-10T10:05:23.011Z,16.5
2019-05-10T10:06:32.638Z,16.4
2019-05-10T10:07:42.250Z,16.5
2019-05-10T10:08:53.506Z,16.4
2019-05-10T10:11:15.636Z,16.5
2019-05-10T10:12:20.839Z,16.4
2019-05-10T10:13:39.211Z,16.5
2019-05-10T10:14:43.087Z,16.4
2019-05-10T10:15:52.253Z,16.5
2019-05-10T10:17:02.891Z,16.6
2019-05-10T10:18:12.453Z,16.6
2019-05-10T10:19:21.369Z,16.7
2019-05-10T10:20:29.985Z,16.9
2019-05-10T10:21:38.853Z,17.1
2019-05-10T10:22:49.472Z,17.4
2019-05-10T10:24:00.270Z,17.8
2019-05-10T10:25:07.619Z,18
2019-05-10T10:26:18.478Z,18.2
2019-05-10T10:27:34.169Z,17.8
2019-05-10T10:28:38.889Z,17.9
2019-05-10T10:29:47.434Z,18
2019-05-10T10:31:04.723Z,19.1
2019-05-10T10:32:07.666Z,19.9
2019-05-10T10:33:17.967Z,20.5
2019-05-10T10:34:26.642Z,20.3
2019-05-10T10:35:34.268Z,19.8
2019-05-10T10:36:44.206Z,19.9
2019-05-10T10:37:57.359Z,20.1
2019-05-10T10:39:03.540Z,19.3
2019-05-10T10:40:15.205Z,19.6
2019-05-10T10:41:26.212Z,19.8
2019-05-10T10:42:38.000Z,19.5
2019-05-10T10:43:48.671Z,20.5
2019-05-10T10:45:00.332Z,21.5
2019-05-10T10:46:12.744Z,21.2
2019-05-10T10:47:28.197Z,21.8
2019-05-10T10:48:36.944Z,21.2
2019-05-10T10:49:47.534Z,21.2
2019-05-10T10:50:59.370Z,20.6
2019-05-10T10:52:13.345Z,19.7
2019-05-10T10:53:23.095Z,19.4
2019-05-10T10:54:37.331Z,20.3
2019-05-10T10:55:53.948Z,19.5
2019-05-10T10:56:59.575Z,19.8
2019-05-10T10:58:10.289Z,19.2
2019-05-10T10:59:22.112Z,19.8
2019-05-10T11:00:34.145Z,18.6
2019-05-10T11:01:49.376Z,19.4
2019-05-10T11:02:57.517Z,20.2
2019-05-10T11:04:09.884Z,20.7
2019-05-10T11:05:21.186Z,20.7
2019-05-10T11:06:33.003Z,20.9
2019-05-10T11:08:56.792Z,20
2019-05-10T11:10:15.961Z,19.7
2019-05-10T11:11:18.248Z,19
2019-05-10T11:12:27.985Z,18.7
2019-05-10T11:13:44.784Z,18.8
2019-05-10T11:14:51.642Z,18.5
2019-05-10T11:16:09.514Z,18.4
2019-05-10T11:17:15.108Z,18.6
2019-05-10T11:18:27.120Z,18.8
2019-05-10T11:20:53.818Z,19.1
2019-05-10T11:23:11.978Z,19
2019-05-10T11:24:22.848Z,19.1
2019-05-10T11:25:31.463Z,18.8
2019-05-10T11:26:44.855Z,18.9
2019-05-10T11:27:58.335Z,19
2019-05-10T11:29:04.729Z,19
2019-05-10T11:30:14.509Z,18.6
2019-05-10T11:31:24.408Z,18.6
2019-05-10T11:32:35.987Z,18.8
2019-05-10T11:33:52.477Z,19
2019-05-10T11:34:59.494Z,19
2019-05-10T11:36:11.324Z,18.8
2019-05-10T11:37:30.842Z,19
2019-05-10T11:38:32.722Z,19.1
2019-05-10T11:39:46.639Z,19
2019-05-10T11:40:54.292Z,19.2
2019-05-10T11:42:07.299Z,19.3
2019-05-10T11:43:23.506Z,19.6
2019-05-10T11:44:31.518Z,19.8
2019-05-10T11:45:43.982Z,19.6
2019-05-10T11:46:52.992Z,19.6
2019-05-10T11:48:02.718Z,18.9
2019-05-10T11:49:14.487Z,19
2019-05-10T11:50:31.588Z,18.9
2019-05-10T11:51:38.149Z,19.3
2019-05-10T11:52:51.255Z,19.8
2019-05-10T11:54:01.537Z,21.4
2019-05-10T11:55:13.326Z,22.3
2019-05-10T11:56:27.688Z,22.6
2019-05-10T11:57:42.903Z,22.3
2019-05-10T11:58:53.009Z,21.6
2019-05-10T12:00:00.647Z,20.7
2019-05-10T12:01:17.282Z,21.3
2019-05-10T12:02:37.242Z,20.8
2019-05-10T12:03:36.139Z,21
2019-05-10T12:04:47.892Z,20.5
2019-05-10T12:06:05.000Z,19.6
2019-05-10T12:07:12.787Z,19.5
2019-05-10T12:08:24.755Z,19.4
2019-05-10T12:09:36.574Z,19.8
2019-05-10T12:10:52.610Z,19.9
2019-05-10T12:13:19.241Z,20.2
2019-05-10T12:14:23.759Z,20.1
2019-05-10T12:15:35.593Z,19.7
2019-05-10T12:16:47.381Z,19.8
2019-05-10T12:18:04.300Z,19.8
2019-05-10T12:19:19.649Z,19.7
2019-05-10T12:21:33.100Z,19.3
2019-05-10T12:22:41.903Z,18.8
2019-05-10T12:23:50.806Z,18.1
2019-05-10T12:27:10.723Z,17
2019-05-10T12:28:32.416Z,16.9
2019-05-10T12:29:38.612Z,16.4
2019-05-10T12:30:50.886Z,15.9
2019-05-10T12:31:58.012Z,15.8
2019-05-10T12:33:09.605Z,15.8
2019-05-10T12:34:17.428Z,15.4
2019-05-10T12:35:32.495Z,15.7
2019-05-10T12:36:36.975Z,15.7
2019-05-10T12:37:51.273Z,15.6
2019-05-10T12:38:56.611Z,15.5
2019-05-10T12:40:09.748Z,15.4
2019-05-10T12:41:15.278Z,15.4
2019-05-10T12:42:25.308Z,15.3
2019-05-10T12:43:34.574Z,15.1
2019-05-10T12:44:47.895Z,15.3
2019-05-10T12:45:53.806Z,15
2019-05-10T12:47:03.606Z,14.9
2019-05-10T12:48:13.034Z,14.8
2019-05-10T12:49:22.643Z,14.5
2019-05-10T12:50:32.448Z,14.4
2019-05-10T12:51:43.185Z,14.4
2019-05-10T12:53:03.112Z,14.6
2019-05-10T12:54:01.197Z,14.6
2019-05-10T12:55:10.622Z,14.7
2019-05-10T12:56:20.231Z,14.6
2019-05-10T12:57:29.778Z,14.6
2019-05-10T12:58:39.370Z,14.6
2019-05-10T12:59:48.958Z,14.7
2019-05-10T13:01:00.598Z,14.7
2019-05-10T13:02:13.169Z,14.6
2019-05-10T13:03:25.105Z,14.7
2019-05-10T13:04:40.341Z,14.7
2019-05-10T13:05:52.316Z,14.8
2019-05-10T13:06:58.508Z,14.9
2019-05-10T13:08:10.088Z,14.9
2019-05-10T13:09:35.822Z,15.2
2019-05-10T13:10:36.900Z,15
2019-05-10T13:11:44.970Z,15
2019-05-10T13:12:56.396Z,15.1
2019-05-10T13:14:09.657Z,15.1
2019-05-10T13:15:24.613Z,15.1
2019-05-10T13:16:31.266Z,15.1
2019-05-10T13:17:49.522Z,15.1
2019-05-10T13:18:54.372Z,15.3
2019-05-10T13:20:05.905Z,15.1
2019-05-10T13:21:20.560Z,15.1
2019-05-10T13:22:36.565Z,15.2
2019-05-10T13:23:40.700Z,15
2019-05-10T13:24:52.359Z,15.4
2019-05-10T13:26:04.528Z,15.5
2019-05-10T13:27:15.432Z,15
2019-05-10T13:28:27.032Z,15.3
2019-05-10T13:29:40.543Z,15.5
2019-05-10T13:30:50.226Z,15.4
2019-05-10T13:32:01.771Z,15.4
2019-05-10T13:33:27.667Z,15.3
2019-05-10T13:34:24.932Z,15.2
2019-05-10T13:35:36.783Z,15.5
2019-05-10T13:36:48.337Z,15.5
2019-05-10T13:38:03.437Z,15.5
2019-05-10T13:39:11.397Z,15.4
2019-05-10T13:40:23.823Z,15.4
2019-05-10T13:41:34.523Z,15.4
2019-05-10T13:42:46.212Z,15.7
2019-05-10T13:43:58.706Z,15.7
2019-05-10T13:45:09.364Z,15.4
2019-05-10T13:46:20.898Z,15.5
2019-05-10T13:47:32.519Z,15.6
2019-05-10T13:48:44.508Z,15.6
2019-05-10T13:49:55.716Z,15.6
2019-05-10T13:51:07.722Z,15.6
2019-05-10T13:52:18.921Z,16
2019-05-10T13:53:30.573Z,16.2
2019-05-10T13:54:42.224Z,16.3
2019-05-10T13:55:53.763Z,16.2
2019-05-10T13:57:05.382Z,16.4
2019-05-10T13:58:17.028Z,16.6
2019-05-10T13:59:28.652Z,16.7
2019-05-10T14:00:40.877Z,16.8
2019-05-10T14:01:52.100Z,16.7
2019-05-10T14:03:04.822Z,16.8
2019-05-10T14:04:16.401Z,16.6
2019-05-10T14:05:28.037Z,16.9
2019-05-10T14:06:39.739Z,16.9
2019-05-10T14:07:52.848Z,17.4
2019-05-10T14:09:03.292Z,17.7
2019-05-10T14:10:18.034Z,18
2019-05-10T14:11:26.270Z,18.2
2019-05-10T14:12:37.949Z,18
2019-05-10T14:13:49.593Z,18
2019-05-10T14:15:06.177Z,17.5
2019-05-10T14:16:18.020Z,17.6
2019-05-10T14:17:24.633Z,17.5
2019-05-10T14:18:36.651Z,18.1
2019-05-10T14:19:48.054Z,17.6
2019-05-10T14:20:59.777Z,17.7
2019-05-10T14:22:11.554Z,18.2
2019-05-10T14:23:23.339Z,18.8
2019-05-10T14:24:35.109Z,19.2
2019-05-10T14:25:46.855Z,18.4
2019-05-10T14:26:59.362Z,18.4
2019-05-10T14:28:15.530Z,19.1
2019-05-10T14:29:32.761Z,19.5
2019-05-10T14:30:34.089Z,19.2
2019-05-10T14:31:46.054Z,19.6
2019-05-10T14:32:57.860Z,19.5
2019-05-10T14:34:15.078Z,18.8
2019-05-10T14:36:33.977Z,18.3
2019-05-10T14:37:47.793Z,17.8
2019-05-10T14:38:56.566Z,18.1
2019-05-10T14:40:08.538Z,18.4
2019-05-10T14:41:20.235Z,18.8
2019-05-10T14:42:34.126Z,19.6
2019-05-10T14:43:48.076Z,19.9
2019-05-10T14:45:01.935Z,20.2
2019-05-10T14:47:25.627Z,19
2019-05-10T14:48:37.747Z,18.7
2019-05-10T14:49:49.329Z,18.7
2019-05-10T14:51:02.813Z,18.6
2019-05-10T14:52:12.822Z,18.5
2019-05-10T14:53:25.436Z,18.5
2019-05-10T14:54:43.492Z,18.4
2019-05-10T14:55:48.265Z,18.3
2019-05-10T14:57:02.136Z,19
2019-05-10T14:58:15.943Z,19.2
2019-05-10T14:59:29.839Z,19.5
2019-05-10T15:00:43.750Z,20.1
2019-05-10T15:01:57.702Z,19.8
2019-05-10T15:03:11.397Z,19.4
2019-05-10T15:04:46.239Z,19.2
2019-05-10T15:06:52.834Z,18.8
2019-05-10T15:08:06.741Z,18.7
2019-05-10T15:09:21.379Z,19
2019-05-10T15:10:39.288Z,18.6
2019-05-10T15:11:48.037Z,18.4
2019-05-10T15:13:01.908Z,18.4
2019-05-10T15:14:13.538Z,18.3
2019-05-10T15:15:25.323Z,18.2
2019-05-10T15:16:37.361Z,18
2019-05-10T15:17:54.868Z,18.2
2019-05-10T15:19:02.443Z,18.3
2019-05-10T15:20:16.298Z,18.4
2019-05-10T15:21:29.980Z,18.2
2019-05-10T15:22:41.696Z,18.5
2019-05-10T15:23:55.136Z,18.4
2019-05-10T15:25:05.178Z,18.2
2019-05-10T15:26:17.007Z,17.9
2019-05-10T15:27:28.657Z,17.5
2019-05-10T15:28:42.347Z,17.1
2019-05-10T15:29:52.049Z,16.8
2019-05-10T15:31:03.811Z,16.4
2019-05-10T15:32:15.480Z,16.7
2019-05-10T15:33:27.136Z,16.4
2019-05-10T15:34:38.836Z,16.4
2019-05-10T15:35:51.609Z,16.4
2019-05-10T15:37:08.983Z,16.5
2019-05-10T15:38:13.919Z,16.7
2019-05-10T15:39:28.597Z,16.5
2019-05-10T15:41:47.027Z,16.2
2019-05-10T15:42:58.630Z,16.5
2019-05-10T15:44:10.304Z,16.7
2019-05-10T15:45:22.037Z,16.9
2019-05-10T15:46:41.481Z,17
2019-05-10T15:47:51.012Z,17.2
2019-05-10T15:48:57.172Z,16.7
2019-05-10T15:50:09.166Z,17.2
2019-05-10T15:51:35.143Z,17.1
2019-05-10T15:52:32.737Z,17.4
2019-05-10T15:53:44.624Z,17.3
2019-05-10T15:54:56.320Z,17.6
2019-05-10T15:56:08.170Z,17.4
2019-05-10T15:57:21.631Z,17.5
2019-05-10T15:58:36.106Z,17
2019-05-10T15:59:43.624Z,16.8
2019-05-10T16:00:55.246Z,16.8
2019-05-10T16:02:07.026Z,16.8
2019-05-10T16:03:16.734Z,16.5
2019-05-10T16:04:26.390Z,16.7
2019-05-10T16:05:43.361Z,16.6
2019-05-10T16:06:45.780Z,16.2
2019-05-10T16:07:55.424Z,16.3
2019-05-10T16:09:16.770Z,16.4
2019-05-10T16:10:14.766Z,16.4
2019-05-10T16:11:24.446Z,16.5